Time;durP1;ratioP1;P1;durP2;ratioP2;P2;SDS_P1;SDS_P2;PMS_P1;PMS_P2;Temp;Humidity;BMP_temperature;BMP_pressure;BME280_temperature;BME280_humidity;BME280_pressure;Samples;Min_cycle;Max_cycle;Signal;HPM_P1;HPM_P2
2020/12/19 00:02:05;;;;;;;24.00;14.20;;;3.30;99.90;;;;;;5051458;28;20069;-75
2020/12/19 00:04:39;;;;;;;22.63;15.40;;;3.30;99.90;;;;;;5049239;28;20505;-74
2020/12/19 00:07:06;;;;;;;24.48;17.35;;;3.30;99.90;;;;;;5043968;28;20045;-77
2020/12/19 00:09:33;;;;;;;31.52;20.80;;;3.30;99.90;;;;;;5047509;28;20040;-75
2020/12/19 00:12:00;;;;;;;26.75;18.00;;;3.20;99.90;;;;;;5049551;28;20081;-74
2020/12/19 00:14:27;;;;;;;31.73;19.33;;;3.20;99.90;;;;;;5049898;28;20322;-76
2020/12/19 00:16:53;;;;;;;26.38;16.48;;;3.10;99.90;;;;;;5049774;28;20079;-74
2020/12/19 00:19:20;;;;;;;22.15;15.48;;;3.10;99.90;;;;;;5049089;28;20367;-75
2020/12/19 00:21:46;;;;;;;22.90;15.07;;;3.20;99.90;;;;;;5049530;28;20045;-74
2020/12/19 00:24:12;;;;;;;23.25;15.05;;;3.20;99.90;;;;;;5049360;28;20132;-75
2020/12/19 00:26:42;;;;;;;20.85;12.40;;;3.20;99.90;;;;;;5043339;28;20063;-75
2020/12/19 00:29:11;;;;;;;21.85;12.70;;;3.10;99.90;;;;;;5047989;28;20049;-75
2020/12/19 00:31:38;;;;;;;17.45;11.15;;;3.20;99.90;;;;;;5050484;28;20136;-75
2020/12/19 00:34:07;;;;;;;16.10;10.18;;;3.10;99.90;;;;;;5050231;28;20064;-75
2020/12/19 00:36:35;;;;;;;12.43;9.52;;;3.10;99.90;;;;;;5049211;28;20052;-75
2020/12/19 00:39:03;;;;;;;12.60;8.80;;;3.10;99.90;;;;;;5048941;28;20065;-75
2020/12/19 00:41:29;;;;;;;14.05;9.88;;;3.10;99.90;;;;;;5049985;28;20072;-75
2020/12/19 00:43:55;;;;;;;18.15;10.43;;;3.20;99.90;;;;;;5048734;28;20072;-76
2020/12/19 00:46:23;;;;;;;14.68;10.48;;;3.20;99.90;;;;;;5050137;28;20076;-75
2020/12/19 00:48:49;;;;;;;14.70;10.20;;;3.20;99.90;;;;;;5049434;28;20040;-75
2020/12/19 00:51:17;;;;;;;14.63;9.90;;;3.30;99.90;;;;;;5049458;28;20049;-75
2020/12/19 00:53:47;;;;;;;14.10;9.05;;;3.40;99.90;;;;;;5050039;28;20041;-74
2020/12/19 00:56:17;;;;;;;15.02;9.13;;;3.50;99.90;;;;;;5048853;28;20060;-75
2020/12/19 00:58:45;;;;;;;12.93;8.57;;;3.70;99.90;;;;;;5049542;28;20059;-74
2020/12/19 01:01:12;;;;;;;11.07;8.07;;;3.70;99.90;;;;;;5049635;28;20155;-75
2020/12/19 01:03:39;;;;;;;10.95;7.75;;;3.70;99.90;;;;;;5049791;28;20128;-75
2020/12/19 01:06:06;;;;;;;13.70;7.90;;;3.70;99.90;;;;;;5049409;28;20118;-76
2020/12/19 01:08:32;;;;;;;9.75;7.60;;;3.70;99.90;;;;;;5049509;28;20125;-74
2020/12/19 01:10:59;;;;;;;9.73;7.50;;;3.60;99.90;;;;;;5048581;28;20087;-75
2020/12/19 01:13:30;;;;;;;11.85;7.50;;;3.60;99.90;;;;;;5048908;28;20057;-74
2020/12/19 01:15:57;;;;;;;10.63;8.35;;;3.50;99.90;;;;;;5049313;28;20409;-75
2020/12/19 01:18:23;;;;;;;15.18;9.05;;;3.40;99.90;;;;;;5049645;28;20518;-74
2020/12/19 01:20:49;;;;;;;12.93;9.15;;;3.40;99.90;;;;;;5048452;28;20103;-74
2020/12/19 01:23:16;;;;;;;14.02;9.55;;;3.30;99.90;;;;;;5049677;28;20207;-74
2020/12/19 01:25:42;;;;;;;12.52;9.10;;;3.20;99.90;;;;;;5048221;28;20132;-74
2020/12/19 01:28:08;;;;;;;12.30;8.10;;;3.30;99.90;;;;;;5048220;28;20119;-75
2020/12/19 01:30:36;;;;;;;12.18;8.73;;;3.20;99.90;;;;;;5049484;28;20051;-74
2020/12/19 01:33:02;;;;;;;10.98;8.60;;;3.20;99.90;;;;;;5049484;28;20140;-75
2020/12/19 01:35:35;;;;;;;17.13;8.40;;;3.10;99.90;;;;;;5049008;28;20439;-75
2020/12/19 01:38:02;;;;;;;14.93;8.75;;;3.10;99.90;;;;;;5048251;28;20095;-76
2020/12/19 01:40:29;;;;;;;10.70;8.05;;;3.00;99.90;;;;;;5032640;28;20126;-75
2020/12/19 01:42:55;;;;;;;12.68;8.40;;;3.00;99.90;;;;;;5048964;28;20088;-74
2020/12/19 01:45:21;;;;;;;14.20;8.30;;;2.80;99.90;;;;;;5048507;28;20128;-75
2020/12/19 01:47:48;;;;;;;12.07;8.63;;;2.80;99.90;;;;;;5049141;28;20049;-74
2020/12/19 01:50:15;;;;;;;12.18;8.60;;;2.80;99.90;;;;;;5038996;28;20067;-74
2020/12/19 01:52:41;;;;;;;14.52;9.13;;;2.80;99.90;;;;;;5049171;28;20517;-74
2020/12/19 01:55:08;;;;;;;13.80;9.20;;;2.70;99.90;;;;;;5047884;28;20132;-75
2020/12/19 01:57:40;;;;;;;11.48;8.80;;;2.70;99.90;;;;;;5037405;28;20261;-74
2020/12/19 02:00:06;;;;;;;13.35;8.95;;;2.60;99.90;;;;;;5037817;28;20449;-74
2020/12/19 02:02:33;;;;;;;12.52;8.90;;;2.50;99.90;;;;;;5049363;28;20511;-75
2020/12/19 02:05:00;;;;;;;12.23;9.00;;;2.60;99.90;;;;;;5048382;28;20455;-75
2020/12/19 02:07:26;;;;;;;13.10;9.20;;;2.60;99.90;;;;;;5045371;28;20107;-75
2020/12/19 02:09:54;;;;;;;15.55;9.20;;;2.60;99.90;;;;;;5038682;28;20495;-74
2020/12/19 02:12:21;;;;;;;12.45;8.57;;;2.70;99.90;;;;;;5033770;28;20049;-75
2020/12/19 02:14:47;;;;;;;12.93;8.45;;;2.80;99.90;;;;;;5048195;28;20156;-75
2020/12/19 02:17:14;;;;;;;10.20;8.32;;;2.80;99.90;;;;;;5048761;28;20140;-75
2020/12/19 02:19:41;;;;;;;11.65;8.88;;;2.80;99.90;;;;;;5036065;28;20132;-75
2020/12/19 02:22:09;;;;;;;12.00;9.10;;;2.80;99.90;;;;;;5048849;28;20077;-75
2020/12/19 02:24:36;;;;;;;16.25;8.90;;;2.80;99.90;;;;;;5046564;28;20048;-76
2020/12/19 02:27:03;;;;;;;11.38;8.13;;;2.90;99.90;;;;;;5045270;28;20449;-75
2020/12/19 02:29:31;;;;;;;11.98;8.10;;;3.00;99.90;;;;;;5035840;28;20075;-74
2020/12/19 02:31:59;;;;;;;13.48;7.88;;;3.10;99.90;;;;;;5048456;28;20542;-75
2020/12/19 02:34:26;;;;;;;12.50;8.60;;;3.20;99.90;;;;;;5047671;28;20081;-74
2020/12/19 02:36:53;;;;;;;12.48;8.55;;;3.10;99.90;;;;;;5047369;28;20045;-74
2020/12/19 02:39:20;;;;;;;10.35;8.30;;;3.20;99.90;;;;;;5036555;28;20046;-74
2020/12/19 02:41:48;;;;;;;12.70;8.55;;;3.30;99.90;;;;;;5045986;28;20049;-74
2020/12/19 02:44:17;;;;;;;13.45;8.23;;;3.20;99.90;;;;;;5047626;28;20124;-74
2020/12/19 02:46:44;;;;;;;10.52;8.45;;;3.20;99.90;;;;;;5048538;28;20123;-75
2020/12/19 02:49:11;;;;;;;11.98;7.90;;;3.10;99.90;;;;;;5046521;28;20125;-75
2020/12/19 02:51:38;;;;;;;10.38;7.80;;;3.00;99.90;;;;;;5046749;28;20452;-75
2020/12/19 02:54:05;;;;;;;10.85;7.78;;;3.00;99.90;;;;;;5047603;28;20126;-75
2020/12/19 02:56:31;;;;;;;12.02;7.25;;;2.90;99.90;;;;;;5048028;28;20064;-74
2020/12/19 02:58:58;;;;;;;10.73;8.32;;;2.80;99.90;;;;;;5047306;28;20060;-76
2020/12/19 03:01:29;;;;;;;9.88;7.60;;;2.80;99.90;;;;;;5047948;28;20052;-73
2020/12/19 03:03:56;;;;;;;13.02;8.65;;;2.80;99.90;;;;;;5047631;28;20081;-76
2020/12/19 03:06:29;;;;;;;10.35;8.60;;;2.80;99.90;;;;;;5047257;28;20103;-74
2020/12/19 03:08:55;;;;;;;13.48;8.20;;;2.80;99.90;;;;;;5048999;28;20077;-74
2020/12/19 03:11:22;;;;;;;12.25;8.98;;;2.90;99.90;;;;;;5040504;28;20049;-74
2020/12/19 03:13:48;;;;;;;10.85;8.18;;;2.90;99.90;;;;;;5048963;28;20083;-75
2020/12/19 03:16:15;;;;;;;12.18;8.38;;;2.80;99.90;;;;;;5050416;28;20102;-73
2020/12/19 03:18:42;;;;;;;12.48;8.18;;;2.90;99.90;;;;;;5051715;28;20077;-74
2020/12/19 03:21:08;;;;;;;13.40;8.65;;;2.90;99.90;;;;;;5041983;28;20216;-75
2020/12/19 03:23:34;;;;;;;11.05;8.50;;;3.00;99.90;;;;;;5051429;28;20048;-75
2020/12/19 03:26:01;;;;;;;10.73;8.25;;;3.20;99.90;;;;;;5045508;28;20137;-75
2020/12/19 03:28:27;;;;;;;11.95;7.78;;;3.40;99.90;;;;;;5041229;28;20080;-74
2020/12/19 03:30:54;;;;;;;9.13;7.18;;;3.70;99.90;;;;;;5044289;28;20488;-74
2020/12/19 03:33:20;;;;;;;11.75;6.72;;;4.00;99.90;;;;;;5051487;28;20561;-75
2020/12/19 03:35:46;;;;;;;10.88;7.32;;;4.20;99.90;;;;;;5050508;28;20152;-74
2020/12/19 03:38:13;;;;;;;9.60;6.80;;;4.40;99.90;;;;;;5051384;28;20132;-75
2020/12/19 03:40:39;;;;;;;10.73;6.82;;;4.40;99.90;;;;;;5043094;28;20128;-75
2020/12/19 03:43:05;;;;;;;11.10;7.00;;;4.30;99.90;;;;;;5051550;28;20090;-76
2020/12/19 03:45:31;;;;;;;10.05;7.25;;;4.30;99.90;;;;;;5049640;28;20053;-75
2020/12/19 03:47:58;;;;;;;9.05;6.65;;;4.20;99.90;;;;;;5050715;28;20309;-76
2020/12/19 03:50:25;;;;;;;9.85;7.15;;;4.10;99.90;;;;;;5047454;28;20052;-75
2020/12/19 03:52:51;;;;;;;12.73;7.90;;;4.00;99.90;;;;;;5051489;28;20103;-75
2020/12/19 03:55:17;;;;;;;14.82;7.50;;;4.00;99.90;;;;;;5050131;28;20372;-75
2020/12/19 03:57:44;;;;;;;12.40;8.13;;;4.00;99.90;;;;;;5040668;28;20087;-74
2020/12/19 04:00:11;;;;;;;12.80;8.35;;;3.90;99.90;;;;;;5049680;28;20128;-75
2020/12/19 04:02:37;;;;;;;10.32;7.60;;;3.90;99.90;;;;;;5043558;28;20654;-75
2020/12/19 04:05:09;;;;;;;11.90;8.05;;;3.90;99.90;;;;;;5049086;28;20052;-76
2020/12/19 04:07:35;;;;;;;10.23;8.05;;;3.80;99.90;;;;;;5050983;28;20119;-75
2020/12/19 04:10:04;;;;;;;12.00;8.40;;;3.80;99.90;;;;;;5048897;28;20147;-76
2020/12/19 04:12:31;;;;;;;11.23;7.50;;;3.70;99.90;;;;;;5050301;28;20464;-75
2020/12/19 04:14:57;;;;;;;12.88;8.90;;;3.60;99.90;;;;;;5050359;28;20045;-76
2020/12/19 04:17:24;;;;;;;12.52;8.25;;;3.40;99.90;;;;;;5050649;28;20045;-75
2020/12/19 04:19:51;;;;;;;12.23;8.73;;;3.30;99.90;;;;;;5041279;28;20653;-75
2020/12/19 04:22:17;;;;;;;12.30;8.45;;;3.20;99.90;;;;;;5050881;28;20118;-75
2020/12/19 04:24:43;;;;;;;12.82;8.95;;;3.10;99.90;;;;;;5049720;28;20136;-75
2020/12/19 04:27:10;;;;;;;9.95;8.38;;;2.90;99.90;;;;;;5037320;28;20121;-76
2020/12/19 04:29:36;;;;;;;16.88;9.40;;;2.80;99.90;;;;;;5048619;28;20502;-76
2020/12/19 04:32:03;;;;;;;14.50;10.05;;;2.70;99.90;;;;;;5049310;28;20045;-76
2020/12/19 04:34:30;;;;;;;15.93;10.32;;;2.70;99.90;;;;;;5049813;28;20092;-75
2020/12/19 04:36:56;;;;;;;16.13;10.65;;;2.80;99.90;;;;;;5050808;28;20136;-75
2020/12/19 04:39:23;;;;;;;14.48;10.25;;;2.90;99.90;;;;;;5041086;28;20077;-74
2020/12/19 04:41:49;;;;;;;14.48;10.25;;;3.00;99.90;;;;;;5050068;28;20360;-75
2020/12/19 04:44:16;;;;;;;15.40;9.60;;;3.10;99.90;;;;;;5049767;28;20119;-75
2020/12/19 04:46:43;;;;;;;17.67;9.68;;;3.20;99.90;;;;;;5050099;28;20041;-75
2020/12/19 04:49:10;;;;;;;16.15;9.82;;;3.20;99.90;;;;;;5042362;28;20092;-75
2020/12/19 04:51:37;;;;;;;11.40;9.60;;;3.30;99.90;;;;;;5047253;28;20136;-75
2020/12/19 04:54:05;;;;;;;14.55;8.80;;;3.40;99.90;;;;;;5049462;28;20140;-75
2020/12/19 04:56:32;;;;;;;14.00;9.73;;;3.50;99.90;;;;;;5041674;28;20136;-74
2020/12/19 04:59:00;;;;;;;13.27;9.50;;;3.50;99.90;;;;;;5046716;28;20061;-75
2020/12/19 05:01:28;;;;;;;13.90;9.13;;;3.50;99.90;;;;;;5043617;28;20369;-76
2020/12/19 05:03:55;;;;;;;14.18;9.13;;;3.50;99.90;;;;;;5049816;28;20124;-75
2020/12/19 05:06:24;;;;;;;13.20;9.50;;;3.30;99.90;;;;;;5049897;28;20507;-74
2020/12/19 05:08:51;;;;;;;13.68;9.60;;;3.20;99.90;;;;;;5048289;28;20052;-74
2020/12/19 05:11:18;;;;;;;15.52;9.57;;;3.10;99.90;;;;;;5040570;28;20096;-75
2020/12/19 05:13:46;;;;;;;15.43;9.90;;;3.00;99.90;;;;;;5049042;28;20422;-75
2020/12/19 05:16:14;;;;;;;13.27;9.65;;;2.90;99.90;;;;;;5049895;28;20490;-75
2020/12/19 05:18:42;;;;;;;16.45;10.35;;;2.90;99.90;;;;;;5048617;28;20080;-74
2020/12/19 05:21:09;;;;;;;12.05;9.43;;;2.80;99.90;;;;;;5041731;28;20051;-75
2020/12/19 05:23:37;;;;;;;14.40;9.88;;;3.00;99.90;;;;;;5049539;28;20080;-74
2020/12/19 05:26:04;;;;;;;13.25;9.25;;;3.10;99.90;;;;;;5048575;28;20072;-74
2020/12/19 05:28:33;;;;;;;15.43;9.77;;;3.30;99.90;;;;;;5047592;28;20076;-74
2020/12/19 05:31:00;;;;;;;18.23;9.80;;;3.50;99.90;;;;;;5043055;28;20459;-74
2020/12/19 05:33:41;;;;;;;13.50;8.80;;;3.60;99.90;;;;;;5047347;28;20084;-73
2020/12/19 05:36:21;;;;;;;14.55;9.32;;;3.70;99.90;;;;;;5047430;28;20516;-74
2020/12/19 05:38:48;;;;;;;13.30;8.45;;;3.70;99.90;;;;;;5045321;28;20487;-74
2020/12/19 05:41:15;;;;;;;15.25;9.05;;;3.70;99.90;;;;;;5042994;28;20045;-74
2020/12/19 05:43:51;;;;;;;14.65;9.23;;;3.60;99.90;;;;;;5048854;28;20072;-74
2020/12/19 05:46:35;;;;;;;11.10;8.63;;;3.60;99.90;;;;;;5047604;28;20095;-74
2020/12/19 05:49:04;;;;;;;13.23;8.35;;;3.50;99.90;;;;;;5047358;28;20131;-75
2020/12/19 05:51:33;;;;;;;14.85;9.43;;;3.40;99.90;;;;;;5039900;28;20088;-74
2020/12/19 05:54:06;;;;;;;12.95;9.07;;;3.30;99.90;;;;;;5048105;28;20107;-75
2020/12/19 05:56:35;;;;;;;12.82;9.18;;;3.10;99.90;;;;;;5040553;28;20045;-73
2020/12/19 05:59:02;;;;;;;16.25;9.73;;;3.00;99.90;;;;;;5037543;28;20079;-75
2020/12/19 06:01:30;;;;;;;15.25;10.07;;;2.80;99.90;;;;;;5046286;28;20075;-74
2020/12/19 06:04:02;;;;;;;15.55;9.88;;;2.70;99.90;;;;;;5036909;28;20585;-76
2020/12/19 06:06:31;;;;;;;15.98;10.35;;;2.60;99.90;;;;;;5048974;28;20049;-74
2020/12/19 06:08:59;;;;;;;16.15;10.57;;;2.50;99.90;;;;;;5047246;28;20486;-76
2020/12/19 06:11:28;;;;;;;13.90;9.30;;;2.30;99.90;;;;;;5042011;28;20116;-74
2020/12/19 06:13:58;;;;;;;15.55;10.23;;;2.20;99.90;;;;;;5047656;28;20142;-74
2020/12/19 06:16:25;;;;;;;13.85;9.80;;;2.10;99.90;;;;;;5040533;28;20136;-75
2020/12/19 06:18:51;;;;;;;15.95;11.07;;;2.00;99.90;;;;;;5048067;28;20120;-75
2020/12/19 06:21:19;;;;;;;19.05;11.40;;;2.00;99.90;;;;;;5048250;28;20044;-75
2020/12/19 06:23:45;;;;;;;19.33;12.75;;;2.00;99.90;;;;;;5045561;28;20099;-75
2020/12/19 06:26:13;;;;;;;17.92;11.65;;;2.00;99.90;;;;;;5045597;28;20499;-76
2020/12/19 06:28:42;;;;;;;17.23;11.68;;;1.90;99.90;;;;;;5038167;28;20357;-75
2020/12/19 06:31:17;;;;;;;15.55;11.80;;;1.90;99.90;;;;;;5048413;28;20142;-74
2020/12/19 06:33:49;;;;;;;18.92;13.10;;;1.80;99.90;;;;;;5048529;28;20106;-75
2020/12/19 06:36:27;;;;;;;22.00;13.93;;;1.70;99.90;;;;;;5041634;28;20064;-74
2020/12/19 06:38:58;;;;;;;19.98;13.30;;;1.70;99.90;;;;;;5042414;28;20067;-76
2020/12/19 06:41:58;;;;;;;17.77;12.20;;;1.60;99.90;;;;;;5047323;28;20081;-74
2020/12/19 06:44:33;;;;;;;21.73;13.73;;;1.50;99.90;;;;;;5050250;28;20067;-75
2020/12/19 06:47:02;;;;;;;26.88;14.82;;;1.50;99.90;;;;;;5039589;28;20186;-75
2020/12/19 06:49:31;;;;;;;22.60;14.50;;;1.60;99.90;;;;;;5050715;28;20053;-74
2020/12/19 06:52:10;;;;;;;21.88;15.30;;;1.70;99.90;;;;;;5051527;28;20110;-75
2020/12/19 06:54:39;;;;;;;25.35;14.63;;;1.70;99.90;;;;;;5049068;28;20073;-75
2020/12/19 06:57:22;;;;;;;19.13;13.60;;;1.60;99.90;;;;;;5041567;28;20503;-75
2020/12/19 06:59:49;;;;;;;26.35;14.93;;;1.50;99.90;;;;;;5048600;28;20045;-74
2020/12/19 07:02:20;;;;;;;22.30;13.95;;;1.50;99.90;;;;;;5052061;28;20049;-74
2020/12/19 07:04:50;;;;;;;23.33;14.32;;;1.40;99.90;;;;;;5051748;28;20088;-74
2020/12/19 07:07:23;;;;;;;25.15;14.77;;;1.50;99.90;;;;;;5047012;28;20053;-75
2020/12/19 07:10:02;;;;;;;21.42;14.35;;;1.50;99.90;;;;;;5061024;28;20134;-75
2020/12/19 07:12:36;;;;;;;26.00;14.35;;;1.50;99.90;;;;;;5038933;28;20522;-74
2020/12/19 07:15:08;;;;;;;22.05;14.75;;;1.50;99.90;;;;;;5051687;28;20049;-74
2020/12/19 07:17:48;;;;;;;23.45;15.18;;;1.40;99.90;;;;;;5051233;28;20072;-74
2020/12/19 07:20:22;;;;;;;23.70;14.90;;;1.40;99.90;;;;;;5050818;28;20060;-74
2020/12/19 07:22:54;;;;;;;23.15;14.20;;;1.40;99.90;;;;;;5039513;28;20072;-74
2020/12/19 07:25:22;;;;;;;18.30;11.00;;;1.40;99.90;;;;;;5050888;28;20057;-74
2020/12/19 07:27:49;;;;;;;24.10;15.93;;;1.40;99.90;;;;;;5049586;28;20149;-74
2020/12/19 07:30:15;;;;;;;29.80;15.77;;;1.40;99.90;;;;;;5049088;28;20092;-74
2020/12/19 07:32:44;;;;;;;26.90;15.32;;;1.50;99.90;;;;;;5040793;28;20567;-75
2020/12/19 07:35:13;;;;;;;26.73;15.57;;;1.40;99.90;;;;;;5049532;28;20061;-75
2020/12/19 07:37:42;;;;;;;30.33;16.38;;;1.40;99.90;;;;;;5049416;28;20045;-79
2020/12/19 07:40:11;;;;;;;29.02;17.88;;;1.40;99.90;;;;;;5048962;28;20124;-79
2020/12/19 07:42:40;;;;;;;35.03;19.02;;;1.50;99.90;;;;;;5049765;28;20061;-79
2020/12/19 07:45:07;;;;;;;27.05;17.80;;;1.60;99.90;;;;;;5050639;28;20181;-78
2020/12/19 07:47:33;;;;;;;29.27;17.75;;;1.70;99.90;;;;;;5052149;28;20045;-77
2020/12/19 07:50:00;;;;;;;24.38;17.05;;;1.70;99.90;;;;;;5037911;28;20095;-78
2020/12/19 07:52:27;;;;;;;27.83;16.90;;;1.80;99.90;;;;;;5051861;28;20084;-78
2020/12/19 07:55:02;;;;;;;28.98;17.85;;;1.80;99.90;;;;;;5049447;28;20085;-78
2020/12/19 07:57:31;;;;;;;23.55;13.93;;;1.90;99.90;;;;;;5040239;28;20479;-76
2020/12/19 07:59:59;;;;;;;28.70;16.30;;;2.00;99.90;;;;;;5035892;28;20045;-77
2020/12/19 08:02:26;;;;;;;32.92;17.08;;;2.10;99.90;;;;;;5051438;28;20606;-76
2020/12/19 08:04:54;;;;;;;26.45;17.45;;;2.10;99.90;;;;;;5050991;28;20059;-81
2020/12/19 08:07:23;;;;;;;27.10;17.65;;;2.20;99.90;;;;;;5039560;28;20057;-76
2020/12/19 08:09:58;;;;;;;29.35;17.25;;;2.30;99.90;;;;;;5064706;28;20045;-73
2020/12/19 08:12:26;;;;;;;23.05;16.30;;;2.60;99.90;;;;;;5036984;28;20094;-73
2020/12/19 08:14:53;;;;;;;24.27;16.38;;;2.70;99.90;;;;;;5050433;28;20085;-74
2020/12/19 08:17:20;;;;;;;22.80;14.60;;;2.80;99.90;;;;;;5048731;28;20045;-74
2020/12/19 08:19:53;;;;;;;22.98;14.27;;;3.00;99.90;;;;;;5050489;28;20057;-73
2020/12/19 08:22:20;;;;;;;21.00;15.30;;;3.20;99.90;;;;;;5051059;28;20106;-73
2020/12/19 08:24:58;;;;;;;24.63;16.02;;;3.40;99.90;;;;;;5044898;28;20146;-75
2020/12/19 08:27:40;;;;;;;21.08;14.95;;;3.50;99.90;;;;;;5046235;28;20041;-72
2020/12/19 08:30:07;;;;;;;20.88;13.00;;;3.70;99.90;;;;;;5044767;28;20098;-72
2020/12/19 08:32:34;;;;;;;14.85;11.27;;;4.20;99.90;;;;;;5050838;28;20133;-72
2020/12/19 08:35:03;;;;;;;17.02;10.90;;;4.50;99.90;;;;;;5050531;28;20128;-73
2020/12/19 08:37:29;;;;;;;15.55;10.40;;;4.80;99.90;;;;;;5048692;28;20075;-73
2020/12/19 08:40:03;;;;;;;13.73;8.85;;;5.00;99.90;;;;;;5039014;28;20530;-74
2020/12/19 08:42:31;;;;;;;16.98;10.40;;;5.20;99.90;;;;;;5049716;28;20045;-73
2020/12/19 08:45:17;;;;;;;14.85;8.95;;;5.20;99.90;;;;;;5048557;28;20455;-73
2020/12/19 08:47:44;;;;;;;12.60;9.27;;;5.30;99.90;;;;;;5048508;28;20041;-73
2020/12/19 08:50:11;;;;;;;26.50;15.70;;;5.50;99.90;;;;;;5049963;28;20182;-74
2020/12/19 08:52:38;;;;;;;17.40;9.73;;;5.60;99.90;;;;;;5048675;28;20080;-74
2020/12/19 08:55:05;;;;;;;17.90;11.27;;;5.70;99.90;;;;;;5047260;28;20065;-74
2020/12/19 08:57:32;;;;;;;14.88;9.70;;;5.70;99.90;;;;;;5044222;28;20611;-74
2020/12/19 09:00:15;;;;;;;17.33;11.02;;;5.90;99.90;;;;;;5043876;28;20142;-73
2020/12/19 09:02:45;;;;;;;15.82;10.80;;;6.10;99.90;;;;;;5048218;28;20077;-73
2020/12/19 09:05:12;;;;;;;16.40;10.60;;;6.10;99.90;;;;;;5044132;28;20142;-73
2020/12/19 09:07:38;;;;;;;13.25;8.95;;;6.30;99.90;;;;;;5049650;28;20048;-73
2020/12/19 09:10:28;;;;;;;10.35;6.65;;;6.70;99.90;;;;;;5049287;28;20118;-75
2020/12/19 09:13:08;;;;;;;11.48;7.53;;;7.10;99.90;;;;;;5049536;28;20146;-73
2020/12/19 09:15:35;;;;;;;12.30;8.20;;;7.20;99.90;;;;;;5043307;28;20544;-74
2020/12/19 09:18:23;;;;;;;10.70;7.68;;;7.30;99.90;;;;;;5048515;28;20059;-74
2020/12/19 09:20:57;;;;;;;9.48;7.40;;;7.40;99.90;;;;;;5047980;28;20118;-74
2020/12/19 09:23:26;;;;;;;10.40;7.05;;;7.50;99.90;;;;;;5044583;28;20059;-73
2020/12/19 09:25:54;;;;;;;10.85;5.95;;;7.60;99.90;;;;;;5044451;28;20464;-74
2020/12/19 09:28:22;;;;;;;13.95;6.80;;;7.80;99.90;;;;;;5038773;28;20131;-74
2020/12/19 09:30:50;;;;;;;8.80;6.47;;;8.00;99.90;;;;;;5049385;28;20048;-74
2020/12/19 09:33:16;;;;;;;8.32;4.80;;;8.70;99.90;;;;;;5046113;28;20534;-74
2020/12/19 09:35:43;;;;;;;9.15;5.28;;;10.00;99.90;;;;;;5048964;28;20076;-74
2020/12/19 09:38:10;;;;;;;6.03;4.53;;;11.50;95.60;;;;;;5048025;28;20052;-74
2020/12/19 09:40:37;;;;;;;6.68;4.53;;;12.40;86.40;;;;;;5033373;28;20080;-74
2020/12/19 09:43:05;;;;;;;6.60;4.80;;;13.40;79.30;;;;;;5048364;28;20447;-75
2020/12/19 09:45:31;;;;;;;7.28;4.40;;;14.40;73.30;;;;;;5048799;28;20502;-74
2020/12/19 09:47:58;;;;;;;5.10;3.78;;;15.10;67.30;;;;;;5048857;28;20202;-74
2020/12/19 09:50:26;;;;;;;7.95;4.97;;;15.40;64.70;;;;;;5047536;28;20163;-74
2020/12/19 09:52:52;;;;;;;5.70;3.72;;;15.70;64.50;;;;;;5047222;28;20045;-73
2020/12/19 09:55:19;;;;;;;6.32;3.97;;;16.70;61.00;;;;;;5042951;28;20082;-75
2020/12/19 09:57:46;;;;;;;3.85;3.42;;;16.90;58.30;;;;;;5029918;28;20087;-74
2020/12/19 10:00:13;;;;;;;3.60;2.38;;;16.80;57.50;;;;;;5046476;28;20065;-73
2020/12/19 10:02:42;;;;;;;4.25;3.33;;;16.40;57.40;;;;;;5042098;28;20495;-73
2020/12/19 10:05:09;;;;;;;4.97;3.47;;;16.20;58.40;;;;;;5043378;28;20067;-75
2020/12/19 10:07:36;;;;;;;5.63;3.45;;;15.70;58.70;;;;;;5048578;28;20149;-74
2020/12/19 10:10:06;;;;;;;4.57;3.08;;;15.60;59.60;;;;;;5046577;28;20049;-74
2020/12/19 10:12:34;;;;;;;5.15;3.40;;;15.70;59.20;;;;;;5046513;28;20342;-74
2020/12/19 10:15:01;;;;;;;5.38;2.75;;;16.10;59.40;;;;;;5048465;28;20048;-75
2020/12/19 10:17:28;;;;;;;4.53;2.92;;;16.30;57.10;;;;;;5047487;28;20068;-74
2020/12/19 10:19:54;;;;;;;5.55;3.53;;;16.80;56.00;;;;;;5045918;28;20183;-75
2020/12/19 10:22:21;;;;;;;3.85;2.67;;;16.90;56.00;;;;;;5046888;28;20687;-74
2020/12/19 10:24:47;;;;;;;2.70;2.28;;;17.10;55.00;;;;;;5048340;28;20045;-74
2020/12/19 10:27:13;;;;;;;5.75;3.42;;;17.30;53.90;;;;;;5048617;28;20105;-73
2020/12/19 10:29:40;;;;;;;7.72;4.95;;;17.20;53.90;;;;;;5047289;28;20470;-75
2020/12/19 10:32:12;;;;;;;6.28;4.57;;;17.50;54.20;;;;;;5048119;28;20075;-75
2020/12/19 10:34:39;;;;;;;10.40;5.80;;;17.20;53.50;;;;;;5047806;28;20079;-74
2020/12/19 10:37:06;;;;;;;9.10;5.60;;;17.30;53.50;;;;;;5047599;28;20460;-75
2020/12/19 10:39:33;;;;;;;9.73;6.88;;;17.20;53.00;;;;;;5047762;28;20415;-74
2020/12/19 10:41:59;;;;;;;7.88;5.47;;;17.60;53.10;;;;;;5044044;28;20410;-75
2020/12/19 10:44:26;;;;;;;14.15;8.85;;;17.80;53.10;;;;;;5040812;28;20057;-74
2020/12/19 10:46:53;;;;;;;7.43;3.63;;;18.50;52.50;;;;;;5048779;28;20060;-74
2020/12/19 10:49:19;;;;;;;4.88;3.70;;;19.00;49.20;;;;;;5047895;28;20773;-74
2020/12/19 10:51:45;;;;;;;6.65;4.47;;;19.30;48.40;;;;;;5048419;28;20471;-73
2020/12/19 10:54:12;;;;;;;9.23;6.15;;;20.00;48.60;;;;;;5040765;28;20436;-74
2020/12/19 10:56:54;;;;;;;9.48;5.07;;;20.40;47.20;;;;;;5043185;28;20063;-73
2020/12/19 10:59:20;;;;;;;8.60;6.22;;;20.40;47.60;;;;;;5047967;28;20045;-74
2020/12/19 11:01:47;;;;;;;7.05;4.80;;;20.60;45.90;;;;;;5047974;28;20418;-73
2020/12/19 11:04:14;;;;;;;7.82;5.43;;;20.70;45.60;;;;;;5041588;28;20052;-75
2020/12/19 11:06:41;;;;;;;7.45;5.00;;;22.00;43.90;;;;;;5043751;28;20049;-75
2020/12/19 11:09:08;;;;;;;14.27;7.10;;;22.40;42.10;;;;;;5046923;28;20075;-75
2020/12/19 11:11:34;;;;;;;9.00;5.28;;;22.10;43.40;;;;;;5047618;28;20053;-73
2020/12/19 11:14:01;;;;;;;6.38;3.10;;;21.80;41.60;;;;;;5047028;28;20053;-75
2020/12/19 11:16:29;;;;;;;5.50;3.90;;;22.50;41.20;;;;;;5046990;28;20415;-74
2020/12/19 11:18:57;;;;;;;6.20;4.10;;;22.90;40.70;;;;;;5047616;28;20041;-76
2020/12/19 11:21:24;;;;;;;5.10;4.00;;;23.10;39.90;;;;;;5048225;28;20114;-74
2020/12/19 11:23:51;;;;;;;7.82;4.47;;;21.90;41.70;;;;;;5045096;28;20075;-75
2020/12/19 11:26:21;;;;;;;8.15;4.10;;;20.80;43.90;;;;;;5046923;28;20519;-75
2020/12/19 11:28:53;;;;;;;4.18;2.97;;;20.20;46.00;;;;;;5037038;28;20041;-73
2020/12/19 11:31:27;;;;;;;3.42;3.13;;;20.30;45.30;;;;;;5051932;28;20049;-73
2020/12/19 11:33:54;;;;;;;3.63;2.65;;;20.50;44.90;;;;;;5047543;28;20052;-74
2020/12/19 11:36:22;;;;;;;7.10;3.92;;;20.50;43.90;;;;;;5051444;28;20418;-73
2020/12/19 11:38:49;;;;;;;3.92;2.70;;;20.30;46.10;;;;;;5051484;28;20057;-74
2020/12/19 11:41:33;;;;;;;3.97;2.45;;;20.40;44.70;;;;;;5039762;28;20053;-74
2020/12/19 11:43:59;;;;;;;3.00;1.95;;;19.20;44.70;;;;;;5049648;28;20084;-75
2020/12/19 11:46:26;;;;;;;3.13;1.90;;;18.30;47.50;;;;;;5048607;28;20098;-73
2020/12/19 11:48:52;;;;;;;2.22;1.80;;;18.90;46.50;;;;;;5050539;28;20102;-74
2020/12/19 11:51:32;;;;;;;4.03;2.35;;;19.20;44.90;;;;;;5044799;28;20053;-74
2020/12/19 11:53:59;;;;;;;5.20;2.63;;;20.00;45.00;;;;;;5046652;28;20079;-75
2020/12/19 11:56:26;;;;;;;4.50;1.88;;;21.10;42.00;;;;;;5051141;28;20144;-74
2020/12/19 11:58:53;;;;;;;3.25;2.20;;;20.90;42.20;;;;;;5048832;28;20045;-75
2020/12/19 12:01:20;;;;;;;3.20;2.50;;;21.30;42.10;;;;;;5045516;28;20049;-74
2020/12/19 12:03:46;;;;;;;2.67;1.75;;;21.70;42.30;;;;;;5047675;28;20133;-75
2020/12/19 12:06:13;;;;;;;4.13;2.88;;;21.20;41.90;;;;;;5048214;28;20087;-75
2020/12/19 12:08:42;;;;;;;4.22;1.85;;;21.50;42.50;;;;;;5045579;28;20068;-75
2020/12/19 12:11:09;;;;;;;6.25;3.20;;;21.80;42.00;;;;;;5042376;28;20478;-76
2020/12/19 12:13:36;;;;;;;2.80;2.20;;;21.50;42.60;;;;;;5043705;28;20060;-75
2020/12/19 12:16:10;;;;;;;3.28;2.50;;;20.90;42.80;;;;;;5049474;28;20041;-75
2020/12/19 12:18:37;;;;;;;4.60;2.20;;;21.00;42.90;;;;;;5047812;28;20103;-75
2020/12/19 12:21:04;;;;;;;3.55;2.47;;;19.70;44.00;;;;;;5047309;28;20056;-75
2020/12/19 12:23:30;;;;;;;3.67;2.08;;;19.40;45.40;;;;;;5047016;28;20041;-74
2020/12/19 12:25:57;;;;;;;2.75;2.03;;;18.80;45.10;;;;;;5048073;28;20400;-75
2020/12/19 12:28:24;;;;;;;3.78;2.45;;;18.30;46.50;;;;;;5045480;28;20129;-74
2020/12/19 12:30:50;;;;;;;4.00;2.30;;;18.60;46.40;;;;;;5047448;28;20480;-74
2020/12/19 12:33:16;;;;;;;3.47;2.20;;;18.60;46.60;;;;;;5044976;28;20484;-76
2020/12/19 12:35:43;;;;;;;3.35;2.17;;;19.60;45.80;;;;;;5047961;28;20149;-75
2020/12/19 12:38:09;;;;;;;5.70;2.35;;;19.70;44.30;;;;;;5048989;28;20059;-74
2020/12/19 12:40:36;;;;;;;3.95;2.38;;;18.90;45.10;;;;;;5047714;28;20083;-75
2020/12/19 12:43:03;;;;;;;3.05;2.63;;;18.40;46.10;;;;;;5048333;28;20115;-75
2020/12/19 12:45:33;;;;;;;5.65;2.85;;;17.90;47.60;;;;;;5049577;28;20114;-74
2020/12/19 12:48:02;;;;;;;2.72;2.20;;;18.40;48.00;;;;;;5049161;28;20055;-75
2020/12/19 12:50:29;;;;;;;4.72;2.30;;;18.90;46.50;;;;;;5043900;28;20499;-73